Similk Beach, Washington
Current Conditions -  °F | °C
As of 8:56 AM on Saturday 20 Dec 2014 (Local Time) from KNUW Reporting Station
Broken Clouds Broken Clouds  
Wind Chill:   Ceiling: 3800
Heat Index:   Visibility: 10mi
Dew Point:   Wind: 24mph
Humidity: 71%   Direction: 130°SE
Pressure: 29.57"   Gusts: 35mph
Location:  48.4652°N, 122.617°W
Report Text: KNUW 201656Z 13021G30KT 10SM SCT027 BKN038 BKN070 09/04 A2957 RMK AO2 PK WND 13036/1619 SLP018 T00940044 VISNO E $
Loading
Personal Weather Stations






























Interactive Weather Map New forecast layout! Learn more

10-Day Weather Forecast

Advertisements
Track Severe Weather on mobile